Schnellsuche:     vonnach     am:               Ankunft heute   Abflug heute   
Wetterdaten des Sylter Flughafens. Alle Angaben sind ohne Gewähr.



Datum: 2019-04-21 14:20 UTC
   
Windrichtung: 330°
Windgeschwindigkeit: 4 - 9 Kt.
QNH: 1022 hPa
Temperatur: 16 °C
Taupunkt: 1 °C
rel. Luftfeuchte: 36 %

METAR EDXW 211420Z 33006KT CAVOK 17/02 Q1022 RMK ATIS OSC=

Wolkenhöhen in den letzten 48 Stunden:






 

Im Jettempo nach Sylt!



Rhein-Neckar-Air

Mannheim und Kassel
Die Rhein-Neckar-Air fliegt vom 05. April bis zum 25. Oktober 2019 nach Mannheim und vom 08. Juni bis zum 31. August 2019 nach Kassel. Zur Seite der Rhein-Neckar-Air: www.flyrna.com

Lufthansa

Zürich, München und Frankfurt/Main
Die Lufthansa fliegt vom 14. April bis zum 24. Oktober 2020 nach Zürich, vom 14. April bis zum 24. Oktober 2020 nach München und vom 22. April bis zum 18. Oktober 2020 nach Frankfurt/Main. Zur Seite der Lufthansa: www.lufthansa.de

Syltair

Hamburg
Die Syltair fliegt vom 19. April bis zum 06. Oktober 2019 nach Hamburg. Zur Seite der Syltair: www.syltair.de